Time;durP1;ratioP1;P1;durP2;ratioP2;P2;SDS_P1;SDS_P2;PMS_P1;PMS_P2;Temp;Humidity;BMP_temperature;BMP_pressure;BME280_temperature;BME280_humidity;BME280_pressure;Samples;Min_cycle;Max_cycle;Signal;HPM_P1;HPM_P2
2021/07/13 00:03:59;;;;;;;15.48;13.88;;;;;;;17.69;82.83;100882.25;10538800;28;20059;-59
2021/07/13 00:09:21;;;;;;;15.35;13.95;;;;;;;17.78;82.78;100884.06;10538824;28;20044;-60
2021/07/13 00:14:24;;;;;;;18.88;17.00;;;;;;;17.80;82.37;100888.28;10540457;28;20503;-60
2021/07/13 00:19:26;;;;;;;18.23;16.45;;;;;;;17.79;82.82;100889.25;10545770;28;20040;-60
2021/07/13 00:24:31;;;;;;;17.67;15.90;;;;;;;17.77;83.04;100892.97;10545091;28;20063;-59
2021/07/13 00:29:33;;;;;;;15.43;14.02;;;;;;;17.89;82.74;100907.03;10544985;28;20055;-60
2021/07/13 00:34:36;;;;;;;16.67;15.02;;;;;;;18.14;81.77;100906.56;10545345;28;20188;-59
2021/07/13 00:39:38;;;;;;;17.80;14.80;;;;;;;17.92;83.29;100912.03;10544780;28;20048;-59
2021/07/13 00:44:42;;;;;;;18.58;16.67;;;;;;;17.91;83.07;100905.06;10545004;28;20130;-59
2021/07/13 00:49:45;;;;;;;19.95;17.88;;;;;;;17.74;83.49;100912.63;10544307;28;20480;-60
2021/07/13 00:54:49;;;;;;;20.63;17.02;;;;;;;17.76;83.88;100918.63;10544878;28;20071;-60
2021/07/13 00:59:52;;;;;;;19.77;17.88;;;;;;;17.92;83.33;100912.91;10543354;28;20044;-60
2021/07/13 01:04:58;;;;;;;17.88;16.08;;;;;;;18.18;82.20;100915.06;10544281;28;20399;-60
2021/07/13 01:10:16;;;;;;;17.95;16.25;;;;;;;18.02;82.80;100912.91;10544012;28;20044;-59
2021/07/13 01:15:20;;;;;;;19.90;17.65;;;;;;;18.04;82.87;100910.13;10543706;28;20040;-60
2021/07/13 01:20:59;;;;;;;18.42;15.30;;;;;;;17.96;83.20;100903.69;10542362;28;20045;-60
2021/07/13 01:26:09;;;;;;;18.95;17.15;;;;;;;17.92;83.73;100899.66;10541703;28;20507;-59
2021/07/13 01:31:16;;;;;;;17.88;16.25;;;;;;;18.01;83.15;100890.88;10542354;28;20044;-61
2021/07/13 01:36:27;;;;;;;19.92;18.02;;;;;;;18.08;83.22;100877.94;10541471;28;20048;-59
2021/07/13 01:41:31;;;;;;;19.88;17.52;;;;;;;18.02;82.72;100862.56;10543009;28;20055;-59
2021/07/13 01:46:33;;;;;;;19.92;17.35;;;;;;;18.23;82.10;100859.84;10541162;28;20043;-60
2021/07/13 01:51:36;;;;;;;22.40;20.30;;;;;;;18.08;82.87;100856.75;10542669;28;20044;-59
2021/07/13 01:56:39;;;;;;;22.25;19.95;;;;;;;18.22;82.25;100860.00;10541814;28;20048;-60
2021/07/13 02:01:42;;;;;;;27.48;24.63;;;;;;;18.00;83.65;100869.81;10540850;28;20048;-59
2021/07/13 02:06:45;;;;;;;29.77;26.63;;;;;;;17.96;84.36;100861.31;10540027;28;20055;-59
2021/07/13 02:11:48;;;;;;;24.63;22.13;;;;;;;18.11;83.60;100858.31;10539912;28;20049;-59
2021/07/13 02:16:51;;;;;;;25.70;23.15;;;;;;;17.91;83.94;100876.78;10540737;28;20482;-59
2021/07/13 02:21:55;;;;;;;27.83;24.55;;;;;;;17.79;84.04;100878.66;10540873;28;20396;-60
2021/07/13 02:27:03;;;;;;;28.95;24.50;;;;;;;17.68;84.51;100875.25;10541021;28;20052;-60
2021/07/13 02:32:34;;;;;;;28.25;24.95;;;;;;;17.50;84.65;100875.88;10539766;28;20043;-60
2021/07/13 02:37:38;;;;;;;31.90;25.25;;;;;;;17.49;84.14;100878.66;10538450;28;20492;-59
2021/07/13 02:42:45;;;;;;;27.67;24.88;;;;;;;17.39;84.25;100881.22;10539238;28;20411;-59
2021/07/13 02:47:49;;;;;;;27.02;21.92;;;;;;;17.40;84.22;100869.66;10540035;28;20058;-59
2021/07/13 02:52:53;;;;;;;28.67;25.00;;;;;;;17.40;84.50;100874.94;10538924;28;20122;-59
2021/07/13 02:57:57;;;;;;;27.88;24.95;;;;;;;17.35;84.83;100855.97;10539787;28;20055;-60
2021/07/13 03:03:00;;;;;;;30.73;27.52;;;;;;;17.44;84.38;100857.84;10539749;28;20430;-59
2021/07/13 03:08:03;;;;;;;29.80;26.63;;;;;;;17.46;84.34;100851.44;10539170;28;20063;-59
2021/07/13 03:13:06;;;;;;;30.13;25.52;;;;;;;17.78;83.30;100863.72;10539621;28;20052;-59
2021/07/13 03:18:09;;;;;;;29.27;26.15;;;;;;;17.59;84.58;100863.66;10538990;28;20071;-59
2021/07/13 03:23:11;;;;;;;29.55;26.50;;;;;;;17.46;84.85;100862.03;10539728;28;20050;-59
2021/07/13 03:28:14;;;;;;;28.80;25.80;;;;;;;17.51;84.70;100843.13;10538067;28;20048;-60
2021/07/13 03:33:17;;;;;;;27.42;24.50;;;;;;;17.62;84.33;100835.09;10537671;28;20055;-59
2021/07/13 03:38:19;;;;;;;26.17;23.52;;;;;;;17.60;84.46;100833.53;10537750;28;20040;-59
2021/07/13 03:43:24;;;;;;;22.60;20.13;;;;;;;17.81;83.38;100833.50;10539132;28;20404;-59
2021/07/13 03:48:27;;;;;;;20.83;18.60;;;;;;;17.69;83.83;100835.41;10537625;28;20052;-60
2021/07/13 03:53:30;;;;;;;21.02;18.92;;;;;;;17.67;84.49;100834.72;10545447;28;20043;-59
2021/07/13 03:58:32;;;;;;;24.30;21.80;;;;;;;17.53;84.77;100829.75;10546370;28;20570;-59
2021/07/13 04:03:34;;;;;;;22.02;18.50;;;;;;;17.78;84.12;100825.81;10546552;28;20044;-59
2021/07/13 04:08:36;;;;;;;21.10;18.88;;;;;;;17.72;84.21;100829.00;10546173;28;20055;-59
2021/07/13 04:13:39;;;;;;;19.30;17.30;;;;;;;18.08;83.16;100837.38;10546129;28;20123;-58
2021/07/13 04:18:42;;;;;;;22.75;20.45;;;;;;;17.79;84.34;100841.56;10546090;28;20105;-60
2021/07/13 04:23:44;;;;;;;21.90;19.70;;;;;;;17.80;84.54;100843.25;10545567;28;20052;-59
2021/07/13 04:28:46;;;;;;;24.20;21.63;;;;;;;17.78;84.74;100847.00;10545589;28;20056;-59
2021/07/13 04:33:49;;;;;;;30.38;25.80;;;;;;;17.63;85.25;100852.69;10545146;28;20548;-60
2021/07/13 04:38:51;;;;;;;25.20;22.67;;;;;;;17.75;84.60;100856.06;10545051;28;20054;-59
2021/07/13 04:43:53;;;;;;;21.23;19.10;;;;;;;18.09;83.54;100849.63;10544737;28;20412;-60
2021/07/13 04:48:56;;;;;;;21.15;18.83;;;;;;;18.13;83.25;100859.81;10544589;28;20480;-59
2021/07/13 04:53:59;;;;;;;21.23;18.50;;;;;;;17.95;84.43;100870.22;10544436;28;20044;-60
2021/07/13 04:59:01;;;;;;;25.10;22.40;;;;;;;17.95;84.19;100856.97;10544012;28;20403;-59
2021/07/13 05:04:04;;;;;;;22.85;19.83;;;;;;;18.30;83.43;100870.75;10543779;28;20484;-60
2021/07/13 05:09:06;;;;;;;23.90;20.80;;;;;;;18.43;82.75;100867.84;10543985;28;20044;-59
2021/07/13 05:14:09;;;;;;;25.10;21.70;;;;;;;18.49;82.98;100891.13;10543750;28;20044;-60
2021/07/13 05:19:14;;;;;;;30.45;25.45;;;;;;;18.52;82.99;100897.00;10543307;28;20476;-60
2021/07/13 05:24:16;;;;;;;26.48;23.50;;;;;;;18.11;84.59;100893.56;10542545;28;20502;-59
2021/07/13 05:29:19;;;;;;;27.83;24.15;;;;;;;18.31;83.83;100886.50;10542909;28;20054;-59
2021/07/13 05:34:22;;;;;;;27.27;24.40;;;;;;;18.58;83.08;100887.69;10543522;28;20047;-60
2021/07/13 05:39:24;;;;;;;27.63;24.60;;;;;;;18.50;83.39;100883.06;10542491;28;20044;-59
2021/07/13 05:44:26;;;;;;;26.65;23.52;;;;;;;18.55;83.73;100880.00;10542608;28;20052;-59
2021/07/13 05:49:29;;;;;;;31.70;26.15;;;;;;;18.46;83.71;100875.50;10542181;28;20048;-59
2021/07/13 05:54:31;;;;;;;26.90;24.20;;;;;;;18.78;82.61;100883.22;10542518;28;20052;-60
2021/07/13 05:59:33;;;;;;;27.33;24.52;;;;;;;18.76;83.73;100887.81;10542064;28;20067;-58
2021/07/13 06:04:36;;;;;;;32.30;28.90;;;;;;;18.49;84.77;100894.66;10541623;28;20060;-59
2021/07/13 06:09:38;;;;;;;25.58;22.88;;;;;;;18.67;83.66;100893.97;10541502;28;20076;-60
2021/07/13 06:14:40;;;;;;;26.17;23.45;;;;;;;18.92;83.67;100903.22;10540737;28;20063;-60
2021/07/13 06:19:43;;;;;;;26.63;24.02;;;;;;;18.65;84.46;100899.41;10540950;28;20059;-59
2021/07/13 06:24:45;;;;;;;29.13;26.15;;;;;;;19.01;84.58;100901.53;10540914;28;20488;-59
2021/07/13 06:29:47;;;;;;;38.22;32.92;;;;;;;18.67;85.28;100909.88;10540758;28;20067;-59
2021/07/13 06:34:50;;;;;;;38.40;34.22;;;;;;;18.79;85.36;100916.72;10541075;28;20060;-59
2021/07/13 06:39:52;;;;;;;40.13;35.78;;;;;;;18.68;85.48;100925.66;10540350;28;20050;-59
2021/07/13 06:44:54;;;;;;;42.05;35.95;;;;;;;18.86;85.15;100919.69;10540524;28;20062;-59
2021/07/13 06:49:57;;;;;;;39.38;35.25;;;;;;;18.81;84.93;100924.53;10539786;28;20056;-59
2021/07/13 06:55:02;;;;;;;49.88;41.53;;;;;;;18.83;85.88;100934.06;10539791;28;20369;-60
2021/07/13 07:00:09;;;;;;;45.25;38.20;;;;;;;19.01;85.45;100925.41;10539600;28;20404;-60
2021/07/13 07:05:12;;;;;;;59.17;46.63;;;;;;;19.01;86.03;100934.19;10539880;28;20048;-59
2021/07/13 07:10:15;;;;;;;55.13;44.53;;;;;;;18.96;85.69;100927.66;10539715;28;20055;-60
2021/07/13 07:15:18;;;;;;;47.35;40.92;;;;;;;19.05;85.25;100938.25;10539503;28;20056;-60
2021/07/13 07:20:28;;;;;;;53.35;44.85;;;;;;;19.08;85.60;100931.81;10540007;28;20052;-61
2021/07/13 07:25:30;;;;;;;55.42;44.97;;;;;;;19.04;85.76;100933.09;10545298;28;20051;-61
2021/07/13 07:30:33;;;;;;;49.60;40.95;;;;;;;19.22;85.51;100933.22;10548068;28;20076;-59
2021/07/13 07:35:35;;;;;;;57.38;44.13;;;;;;;19.33;85.39;100940.19;10547685;28;20044;-60
2021/07/13 07:40:38;;;;;;;64.45;47.50;;;;;;;19.24;86.38;100933.94;10547565;28;20062;-59
2021/07/13 07:45:41;;;;;;;60.17;48.65;;;;;;;19.25;86.26;100935.63;10547951;28;20060;-60
2021/07/13 07:50:43;;;;;;;71.35;52.00;;;;;;;19.43;85.65;100935.72;10547288;28;20044;-59
2021/07/13 07:55:45;;;;;;;70.07;56.22;;;;;;;19.05;86.24;100929.47;10546681;28;20055;-60
2021/07/13 08:00:48;;;;;;;72.18;53.78;;;;;;;19.42;86.24;100929.56;10546952;28;20048;-61
2021/07/13 08:05:55;;;;;;;71.53;54.05;;;;;;;19.59;85.89;100929.81;10547659;28;20059;-60
2021/07/13 08:10:57;;;;;;;72.03;52.33;;;;;;;19.73;85.66;100939.97;10546496;28;20048;-60
2021/07/13 08:15:59;;;;;;;69.90;51.20;;;;;;;19.57;86.64;100939.72;10545931;28;20051;-60
2021/07/13 08:21:02;;;;;;;67.65;51.30;;;;;;;19.60;86.71;100937.66;10545921;28;20040;-60
2021/07/13 08:26:04;;;;;;;57.78;44.25;;;;;;;19.88;86.26;100935.06;10545597;28;20380;-60
2021/07/13 08:31:07;;;;;;;52.08;42.45;;;;;;;20.10;85.40;100944.47;10545830;28;20055;-61
2021/07/13 08:36:09;;;;;;;50.63;40.20;;;;;;;19.98;85.08;100938.50;10544234;28;20051;-60
2021/07/13 08:41:12;;;;;;;53.03;39.75;;;;;;;19.99;86.13;100934.06;10545092;28;20047;-60
2021/07/13 08:46:15;;;;;;;59.25;39.63;;;;;;;19.50;86.53;100931.50;10544807;28;20051;-60
2021/07/13 08:51:19;;;;;;;38.53;26.88;;;;;;;19.98;83.39;100935.84;10543330;28;20113;-60
2021/07/13 08:56:21;;;;;;;37.08;28.08;;;;;;;20.04;84.83;100931.81;10544260;28;20044;-61
2021/07/13 09:01:24;;;;;;;32.95;24.95;;;;;;;19.84;84.02;100923.91;10542976;28;20487;-60
2021/07/13 09:06:26;;;;;;;24.52;19.58;;;;;;;19.71;84.80;100918.03;10543844;28;20052;-60
2021/07/13 09:11:28;;;;;;;18.48;16.00;;;;;;;19.79;83.47;100922.66;10543614;28;20048;-60
2021/07/13 09:16:33;;;;;;;13.93;12.48;;;;;;;19.99;83.78;100926.91;10542483;28;20052;-61
2021/07/13 09:21:36;;;;;;;17.95;15.48;;;;;;;19.81;84.77;100933.97;10544103;28;20062;-62
2021/07/13 09:26:40;;;;;;;20.05;16.50;;;;;;;20.30;84.06;100929.28;10543098;28;20055;-62
2021/07/13 09:31:42;;;;;;;26.38;21.33;;;;;;;20.41;84.32;100917.63;10542625;28;20044;-61
2021/07/13 09:36:54;;;;;;;22.52;18.05;;;;;;;20.56;83.80;100917.91;10542137;28;20487;-60
2021/07/13 09:41:57;;;;;;;28.77;22.83;;;;;;;20.82;84.49;100912.72;10543001;28;20054;-60
2021/07/13 09:47:00;;;;;;;30.42;25.52;;;;;;;21.02;84.43;100913.41;10541665;28;20052;-60
2021/07/13 09:52:04;;;;;;;27.92;22.58;;;;;;;21.33;81.40;100918.28;10540921;28;20488;-61
2021/07/13 09:57:17;;;;;;;33.47;29.35;;;;;;;20.75;84.16;100927.63;10542113;28;20048;-61
2021/07/13 10:02:23;;;;;;;48.30;37.38;;;;;;;20.58;85.88;100926.59;10540752;28;20385;-60
2021/07/13 10:07:27;;;;;;;57.92;39.70;;;;;;;20.73;85.50;100927.78;10541905;28;20488;-60
2021/07/13 10:12:36;;;;;;;48.30;36.85;;;;;;;21.08;83.75;100930.56;10492642;28;20794;-60
2021/07/13 10:17:40;;;;;;;48.83;36.65;;;;;;;20.75;84.22;100935.63;10492353;28;20451;-61
2021/07/13 10:22:44;;;;;;;42.42;32.70;;;;;;;20.57;84.68;100939.03;10492445;28;20053;-59
2021/07/13 10:27:50;;;;;;;43.65;33.60;;;;;;;20.42;85.04;100941.41;10490757;28;20147;-59
2021/07/13 10:32:54;;;;;;;41.75;32.78;;;;;;;20.57;84.91;100939.03;10491764;28;20045;-59
2021/07/13 10:38:15;;;;;;;35.47;28.20;;;;;;;20.76;83.70;100940.78;10491317;28;20048;-60
2021/07/13 10:43:24;;;;;;;32.95;28.92;;;;;;;20.60;84.16;100933.44;10491669;28;20052;-60
2021/07/13 10:48:27;;;;;;;28.08;24.98;;;;;;;20.60;83.71;100935.25;10491463;28;20048;-60
2021/07/13 10:53:40;;;;;;;35.25;29.67;;;;;;;20.49;84.99;100941.63;10490086;28;20044;-60
2021/07/13 10:58:45;;;;;;;33.75;27.60;;;;;;;20.65;83.65;100934.84;10492139;28;20053;-60
2021/07/13 11:03:47;;;;;;;34.05;26.38;;;;;;;20.89;83.54;100943.06;10490461;28;20119;-60
2021/07/13 11:08:53;;;;;;;29.63;25.67;;;;;;;20.98;84.01;100941.34;10489915;28;20063;-60
2021/07/13 11:13:57;;;;;;;40.65;31.20;;;;;;;21.24;83.48;100946.69;10489009;28;20396;-61
2021/07/13 11:19:01;;;;;;;41.92;32.58;;;;;;;21.23;83.83;100942.38;10489656;28;20050;-61
2021/07/13 11:24:03;;;;;;;33.75;28.05;;;;;;;21.51;83.08;100943.09;10462122;28;20083;-61
2021/07/13 11:29:13;;;;;;;34.65;29.77;;;;;;;21.43;83.00;100944.84;10461949;28;20052;-61
2021/07/13 11:34:18;;;;;;;37.30;31.13;;;;;;;21.46;81.79;100944.53;10462735;28;20045;-60
2021/07/13 11:39:20;;;;;;;32.17;26.83;;;;;;;21.57;82.87;100943.47;10461831;28;20087;-60
2021/07/13 11:44:23;;;;;;;38.22;30.33;;;;;;;21.76;82.59;100947.75;10461557;28;20052;-60
2021/07/13 11:49:28;;;;;;;33.92;28.17;;;;;;;21.84;82.34;100947.81;10461653;28;20053;-60
2021/07/13 11:54:32;;;;;;;32.95;26.90;;;;;;;21.69;82.46;100953.72;10460099;28;20052;-60
2021/07/13 11:59:36;;;;;;;30.75;27.40;;;;;;;21.46;82.29;100944.53;10459858;28;20049;-60
2021/07/13 12:04:44;;;;;;;30.35;26.80;;;;;;;21.89;81.61;100946.34;10460845;28;20080;-61
2021/07/13 12:09:46;;;;;;;31.17;25.60;;;;;;;22.06;80.17;100939.25;10460406;28;20455;-60
2021/07/13 12:14:54;;;;;;;32.55;28.33;;;;;;;22.11;80.37;100938.78;10459327;28;20045;-61
2021/07/13 12:19:56;;;;;;;35.28;30.40;;;;;;;21.26;82.72;100939.38;10459981;28;20137;-61
2021/07/13 12:25:05;;;;;;;35.10;30.33;;;;;;;21.43;83.28;100936.84;10459210;28;20045;-61
2021/07/13 12:30:14;;;;;;;33.08;28.27;;;;;;;21.53;81.72;100937.59;10459747;28;20071;-61
2021/07/13 12:35:17;;;;;;;39.78;31.33;;;;;;;21.35;83.50;100940.31;10458154;28;20071;-61
2021/07/13 12:40:20;;;;;;;33.45;28.92;;;;;;;21.49;82.92;100946.91;10458648;28;20090;-60
2021/07/13 12:45:24;;;;;;;35.28;29.00;;;;;;;21.55;82.61;100953.44;10458573;28;20413;-61
2021/07/13 12:50:31;;;;;;;35.40;30.45;;;;;;;21.53;82.57;100956.25;10458237;28;20505;-60
2021/07/13 12:55:47;;;;;;;35.30;28.95;;;;;;;21.51;82.99;100948.41;10458928;28;20055;-61
2021/07/13 13:00:57;;;;;;;35.70;31.00;;;;;;;21.57;82.79;100948.78;10457955;28;20485;-60
2021/07/13 13:06:01;;;;;;;38.57;29.50;;;;;;;21.76;82.47;100950.44;10457737;28;20049;-61
2021/07/13 13:11:06;;;;;;;37.03;30.70;;;;;;;21.59;82.04;100949.50;10457723;28;20049;-61
2021/07/13 13:16:25;;;;;;;38.50;30.02;;;;;;;21.70;82.50;100951.88;10457742;28;20049;-60
2021/07/13 13:21:29;;;;;;;36.75;27.90;;;;;;;21.64;81.56;100940.03;10457395;28;20126;-61
2021/07/13 13:26:32;;;;;;;37.78;30.35;;;;;;;21.81;81.69;100945.47;10456795;28;20041;-60
2021/07/13 13:31:34;;;;;;;36.45;30.30;;;;;;;22.06;80.77;100944.56;10457217;28;20128;-60
2021/07/13 13:36:41;;;;;;;32.13;28.65;;;;;;;22.04;80.89;100956.38;10456898;28;20045;-61
2021/07/13 13:41:44;;;;;;;32.20;28.75;;;;;;;22.01;80.02;100951.41;10456728;28;20053;-60
2021/07/13 13:46:46;;;;;;;38.22;32.05;;;;;;;22.02;81.34;100953.03;10455072;28;20128;-59
2021/07/13 13:51:50;;;;;;;43.00;30.85;;;;;;;21.62;82.23;100958.00;10456929;28;20049;-61
2021/07/13 13:56:52;;;;;;;34.65;30.95;;;;;;;22.03;79.38;100958.22;10456765;28;20041;-61
2021/07/13 14:01:55;;;;;;;30.98;27.05;;;;;;;;;;10456475;28;20053;-60
2021/07/13 14:06:57;;;;;;;26.35;23.73;;;;;;;23.68;76.32;100955.84;10456961;28;20080;-60
2021/07/13 14:12:00;;;;;;;24.38;21.95;;;;;;;23.85;74.83;100952.16;10456556;28;20068;-60
2021/07/13 14:17:02;;;;;;;21.65;17.88;;;;;;;23.78;72.27;100948.47;10456771;28;20053;-62
2021/07/13 14:22:05;;;;;;;18.40;16.58;;;;;;;23.39;70.68;100951.06;10456000;28;20501;-59
2021/07/13 14:27:07;;;;;;;16.85;15.25;;;;;;;23.03;73.95;100940.69;10456570;28;20052;-59
2021/07/13 14:32:09;;;;;;;13.00;11.70;;;;;;;22.96;71.42;100938.69;10455979;28;20049;-60
2021/07/13 14:37:12;;;;;;;8.02;7.25;;;;;;;22.70;68.81;100940.66;10455964;28;20045;-60
2021/07/13 14:42:15;;;;;;;8.60;7.80;;;;;;;22.61;72.27;100932.63;10455807;28;20060;-60
2021/07/13 14:47:17;;;;;;;8.45;7.65;;;;;;;23.14;72.30;100927.84;10455688;28;20099;-62
2021/07/13 14:52:20;;;;;;;9.90;8.93;;;;;;;23.08;73.79;100931.22;10455458;28;20056;-60
2021/07/13 14:57:22;;;;;;;11.55;10.35;;;;;;;23.41;73.42;100930.34;10459931;28;20067;-62
2021/07/13 15:02:25;;;;;;;25.88;21.83;;;;;;;23.49;73.69;100922.34;10463040;28;20420;-61
2021/07/13 15:07:28;;;;;;;40.55;30.60;;;;;;;23.00;75.16;100912.50;10463329;28;20052;-60
2021/07/13 15:12:30;;;;;;;32.60;28.27;;;;;;;22.98;75.80;100915.31;10462745;28;20068;-60
2021/07/13 15:17:32;;;;;;;38.95;30.75;;;;;;;22.88;75.98;100913.81;10462885;28;20052;-61
2021/07/13 15:22:35;;;;;;;39.92;29.88;;;;;;;22.94;75.57;100908.63;10462401;28;20056;-60
2021/07/13 15:27:37;;;;;;;35.28;31.50;;;;;;;22.87;75.76;100920.97;10462362;28;20049;-60
2021/07/13 15:32:39;;;;;;;35.33;28.35;;;;;;;22.58;76.17;100918.78;10462013;28;20401;-61
2021/07/13 15:37:43;;;;;;;32.45;28.73;;;;;;;22.39;77.25;100926.06;10461894;28;20393;-61
2021/07/13 15:42:46;;;;;;;37.47;32.45;;;;;;;22.31;77.61;100923.38;10461910;28;20053;-61
2021/07/13 15:47:48;;;;;;;37.53;32.13;;;;;;;22.11;78.21;100919.25;10461441;28;20045;-60
2021/07/13 15:52:51;;;;;;;38.63;33.03;;;;;;;21.88;79.50;100923.31;10461532;28;20056;-59
2021/07/13 15:57:53;;;;;;;39.67;33.58;;;;;;;21.94;78.82;100929.00;10461137;28;20063;-61
2021/07/13 16:02:55;;;;;;;38.80;32.50;;;;;;;21.89;79.27;100913.53;10459385;28;20053;-60
2021/07/13 16:08:01;;;;;;;36.85;30.88;;;;;;;21.84;79.65;100911.31;10460345;28;20045;-59
2021/07/13 16:13:03;;;;;;;37.00;31.00;;;;;;;21.99;78.43;100918.72;10460497;28;20045;-61
2021/07/13 16:18:06;;;;;;;34.40;30.23;;;;;;;21.86;79.10;100924.50;10460600;28;20053;-61
2021/07/13 16:23:09;;;;;;;31.95;28.38;;;;;;;21.76;79.02;100927.28;10458980;28;20057;-61
2021/07/13 16:28:11;;;;;;;34.72;30.42;;;;;;;21.51;79.21;100945.75;10460199;28;20055;-61
2021/07/13 16:33:13;;;;;;;34.88;31.08;;;;;;;21.38;80.70;100966.59;10458733;28;20049;-60
2021/07/13 16:38:16;;;;;;;34.05;30.08;;;;;;;21.47;79.92;100959.56;10458264;28;20063;-59
2021/07/13 16:43:18;;;;;;;30.98;27.48;;;;;;;21.57;79.78;100960.31;10459351;28;20063;-59
2021/07/13 16:48:21;;;;;;;32.95;29.02;;;;;;;21.45;80.36;100959.69;10459091;28;20048;-60
2021/07/13 16:53:23;;;;;;;32.97;29.40;;;;;;;21.47;80.64;100957.72;10457954;28;20137;-61
2021/07/13 16:58:25;;;;;;;36.83;31.83;;;;;;;21.47;80.86;100952.41;10458634;28;20051;-60
2021/07/13 17:03:28;;;;;;;41.10;32.92;;;;;;;21.51;79.61;100953.75;10458486;28;20118;-61
2021/07/13 17:08:30;;;;;;;39.42;32.25;;;;;;;21.22;81.12;100951.34;10458093;28;20469;-61
2021/07/13 17:13:32;;;;;;;38.10;31.70;;;;;;;21.31;80.18;100958.38;10458017;28;20512;-59
2021/07/13 17:18:35;;;;;;;34.22;29.50;;;;;;;21.28;80.68;100947.22;10457096;28;20048;-62
2021/07/13 17:23:37;;;;;;;31.08;26.63;;;;;;;20.97;81.20;100948.47;10457861;28;20049;-59
2021/07/13 17:28:40;;;;;;;32.85;29.25;;;;;;;21.09;80.76;100949.06;10456049;28;20397;-61
2021/07/13 17:33:43;;;;;;;30.75;26.50;;;;;;;20.91;80.67;100956.22;10457568;28;20378;-58
2021/07/13 17:38:45;;;;;;;34.85;31.02;;;;;;;20.63;82.38;100958.94;10457042;28;20055;-61
2021/07/13 17:43:47;;;;;;;35.40;30.70;;;;;;;20.64;82.23;100965.09;10457343;28;20041;-60
2021/07/13 17:48:51;;;;;;;38.28;30.80;;;;;;;20.75;81.59;100959.56;10456836;28;20401;-61
2021/07/13 17:53:54;;;;;;;32.83;27.13;;;;;;;20.87;80.96;100963.66;10456785;28;20071;-61
2021/07/13 17:58:56;;;;;;;36.40;30.30;;;;;;;20.64;81.74;100968.56;10456477;28;20049;-60
2021/07/13 18:04:04;;;;;;;35.65;29.00;;;;;;;20.58;81.36;100975.31;10457094;28;20048;-60
2021/07/13 18:09:06;;;;;;;31.80;26.70;;;;;;;20.72;80.65;100979.31;10455726;28;20061;-59
2021/07/13 18:14:09;;;;;;;33.88;27.63;;;;;;;20.65;80.93;100970.25;10456297;28;20059;-59
2021/07/13 18:19:11;;;;;;;35.38;28.55;;;;;;;20.59;81.58;100961.03;10456591;28;20055;-59
2021/07/13 18:24:13;;;;;;;33.88;30.23;;;;;;;20.12;82.88;100968.25;10456232;28;20057;-60
2021/07/13 18:29:16;;;;;;;36.25;28.95;;;;;;;20.28;82.46;100968.47;10456098;28;20049;-59
2021/07/13 18:34:18;;;;;;;33.28;28.80;;;;;;;20.41;81.86;100958.34;10462938;28;20049;-61
2021/07/13 18:39:20;;;;;;;33.05;26.67;;;;;;;20.44;81.36;100967.00;10463990;28;20412;-61
2021/07/13 18:44:23;;;;;;;30.67;26.25;;;;;;;20.40;82.06;100969.94;10464100;28;20041;-61
2021/07/13 18:49:25;;;;;;;35.97;28.67;;;;;;;20.42;82.25;100978.63;10463816;28;20049;-61
2021/07/13 18:54:27;;;;;;;37.05;30.20;;;;;;;20.19;82.88;100993.25;10463735;28;20068;-61
2021/07/13 18:59:31;;;;;;;37.08;28.65;;;;;;;20.21;82.77;100994.81;10463619;28;20154;-59
2021/07/13 19:04:33;;;;;;;38.55;31.00;;;;;;;20.21;83.41;100999.28;10463513;28;20051;-61
2021/07/13 19:09:35;;;;;;;37.60;26.65;;;;;;;20.38;81.98;100998.50;10463283;28;20056;-61
2021/07/13 19:14:40;;;;;;;30.75;26.75;;;;;;;20.32;82.48;100987.63;10462929;28;20049;-61
2021/07/13 19:19:43;;;;;;;38.55;30.45;;;;;;;20.15;83.03;100986.56;10462586;28;20049;-61
2021/07/13 19:24:45;;;;;;;36.92;30.15;;;;;;;20.17;82.93;100974.84;10461135;28;20045;-61
2021/07/13 19:29:47;;;;;;;35.60;28.20;;;;;;;20.19;83.04;100958.72;10462063;28;20503;-59
2021/07/13 19:40:14;;;;;;;39.27;30.97;;;;;;;19.93;84.25;100977.97;10462141;28;20048;-60
2021/07/13 19:45:18;;;;;;;33.95;29.30;;;;;;;20.02;83.93;100978.91;10461341;28;20060;-61
2021/07/13 19:50:20;;;;;;;37.08;29.17;;;;;;;20.11;82.87;100980.72;10461454;28;20053;-60
2021/07/13 19:55:23;;;;;;;36.13;28.15;;;;;;;19.99;84.40;100981.91;10460923;28;20409;-59
2021/07/13 20:00:28;;;;;;;38.58;30.85;;;;;;;19.74;85.29;100986.81;10461510;28;20055;-59
2021/07/13 20:05:30;;;;;;;45.47;31.02;;;;;;;19.80;85.23;100978.31;10460557;28;20444;-59
2021/07/13 20:10:32;;;;;;;49.45;31.15;;;;;;;19.73;85.38;100973.66;10460349;28;20049;-59
2021/07/13 20:15:35;;;;;;;41.92;32.58;;;;;;;19.85;85.08;100976.06;10460309;28;20045;-59
2021/07/13 20:20:37;;;;;;;41.83;31.30;;;;;;;19.76;85.32;100984.88;10460214;28;20052;-60
2021/07/13 20:25:40;;;;;;;37.67;27.75;;;;;;;20.04;84.08;100979.63;10460382;28;20045;-60
2021/07/13 20:30:42;;;;;;;36.22;28.05;;;;;;;19.94;83.99;100977.00;10460041;28;20128;-59
2021/07/13 20:35:45;;;;;;;43.72;31.77;;;;;;;19.79;85.03;100971.31;10460206;28;20056;-60
2021/07/13 20:40:47;;;;;;;41.03;30.45;;;;;;;19.95;84.24;100977.84;10459697;28;20052;-59
2021/07/13 20:45:50;;;;;;;38.85;29.63;;;;;;;19.90;84.10;100975.59;10458630;28;20049;-61
2021/07/13 20:50:52;;;;;;;43.15;31.85;;;;;;;19.79;84.20;100968.66;10459126;28;20053;-61
2021/07/13 20:55:55;;;;;;;41.33;29.65;;;;;;;19.79;84.76;100967.81;10458020;28;20053;-60
2021/07/13 21:00:58;;;;;;;35.45;25.83;;;;;;;19.86;84.21;100967.09;10459059;28;20045;-61
2021/07/13 21:06:00;;;;;;;41.78;32.28;;;;;;;19.81;84.93;100974.66;10457596;28;20045;-61
2021/07/13 21:11:03;;;;;;;35.80;28.23;;;;;;;19.80;84.35;100962.38;10458066;28;20059;-59
2021/07/13 21:16:06;;;;;;;35.25;27.00;;;;;;;19.71;85.21;100957.06;10458181;28;20041;-61
2021/07/13 21:21:08;;;;;;;40.50;29.33;;;;;;;19.72;84.64;100942.75;10457971;28;20053;-61
2021/07/13 21:26:11;;;;;;;39.70;29.85;;;;;;;19.53;85.67;100943.66;10457610;28;20041;-60
2021/07/13 21:31:13;;;;;;;37.90;29.20;;;;;;;19.72;84.45;100950.75;10457561;28;20055;-59
2021/07/13 21:36:15;;;;;;;39.92;29.88;;;;;;;19.55;85.82;100949.66;10456961;28;20572;-60
2021/07/13 21:41:18;;;;;;;46.95;30.50;;;;;;;19.73;84.64;100952.41;10457487;28;20044;-59
2021/07/13 21:46:20;;;;;;;40.20;28.35;;;;;;;19.61;85.34;100959.72;10457086;28;20045;-60
2021/07/13 21:51:23;;;;;;;48.08;31.42;;;;;;;19.67;84.77;100961.81;10456703;28;20519;-59
2021/07/13 21:56:25;;;;;;;33.47;26.00;;;;;;;19.56;85.33;100961.97;10456272;28;20485;-61
2021/07/13 22:01:28;;;;;;;38.28;26.85;;;;;;;19.80;84.39;100964.16;10456681;28;20049;-61
2021/07/13 22:06:30;;;;;;;32.80;24.60;;;;;;;19.87;83.99;100959.97;10456206;28;20045;-59
2021/07/13 22:11:33;;;;;;;27.95;24.13;;;;;;;19.92;83.61;100959.53;10456065;28;20390;-60
2021/07/13 22:16:35;;;;;;;43.92;31.23;;;;;;;19.68;85.04;100953.69;10456008;28;20493;-61
2021/07/13 22:21:39;;;;;;;31.77;26.95;;;;;;;19.40;86.20;100960.75;10456183;28;20401;-60
2021/07/13 22:26:41;;;;;;;42.10;28.15;;;;;;;19.62;85.45;100974.69;10456427;28;20064;-61
2021/07/13 22:31:43;;;;;;;33.72;26.30;;;;;;;19.54;85.33;100977.22;10456375;28;20055;-60
2021/07/13 22:36:46;;;;;;;34.42;26.83;;;;;;;19.67;84.70;100980.41;10456517;28;20051;-59
2021/07/13 22:41:50;;;;;;;26.40;22.73;;;;;;;19.53;84.95;100964.91;10456007;28;20053;-60
2021/07/13 22:46:52;;;;;;;34.60;24.83;;;;;;;19.54;84.91;100962.09;10455675;28;20044;-60
2021/07/13 22:51:55;;;;;;;29.52;23.77;;;;;;;19.65;84.16;100964.63;10456096;28;20049;-59